createdAt,value
2023-04-02T00:00:36.711Z,22.72
2023-04-02T00:03:07.658Z,22.56
2023-04-02T00:05:50.043Z,22.72
2023-04-02T00:08:24.339Z,22.72
2023-04-02T00:10:52.647Z,22.54
2023-04-02T00:13:29.390Z,22.71
2023-04-02T00:15:58.214Z,22.68
2023-04-02T00:18:26.621Z,22.45
2023-04-02T00:21:05.649Z,22.45
2023-04-02T00:23:32.513Z,22.76
2023-04-02T00:25:59.162Z,22.68
2023-04-02T00:28:26.263Z,22.79
2023-04-02T00:30:59.702Z,22.72
2023-04-02T00:33:31.418Z,22.28
2023-04-02T00:35:58.123Z,22.73
2023-04-02T00:38:27.475Z,22.60
2023-04-02T00:40:58.423Z,22.45
2023-04-02T00:43:28.059Z,22.16
2023-04-02T00:46:01.280Z,22.77
2023-04-02T00:48:31.343Z,22.78
2023-04-02T00:51:07.705Z,22.40
2023-04-02T00:53:35.402Z,22.76
2023-04-02T00:56:03.976Z,22.77
2023-04-02T00:58:36.717Z,22.60
2023-04-02T01:01:04.699Z,22.67
2023-04-02T01:03:36.354Z,22.78
2023-04-02T01:06:10.578Z,22.76
2023-04-02T01:08:37.487Z,22.77
2023-04-02T01:11:28.504Z,22.77
2023-04-02T01:14:26.122Z,22.76
2023-04-02T01:17:08.638Z,22.74
2023-04-02T01:20:08.106Z,22.66
2023-04-02T01:22:51.232Z,22.62
2023-04-02T01:25:24.961Z,22.74
2023-04-02T01:27:58.696Z,22.74
2023-04-02T01:30:26.159Z,22.74
2023-04-02T01:32:54.244Z,22.55
2023-04-02T01:35:22.553Z,22.72
2023-04-02T01:38:02.055Z,22.64
2023-04-02T01:40:47.313Z,22.73
2023-04-02T01:43:46.288Z,22.72
2023-04-02T01:46:34.163Z,22.32
2023-04-02T01:49:09.812Z,22.25
2023-04-02T01:51:42.449Z,21.94
2023-04-02T01:54:10.866Z,22.52
2023-04-02T01:56:37.749Z,22.69
2023-04-02T01:59:06.157Z,22.40
2023-04-02T02:01:46.089Z,22.65
2023-04-02T02:04:14.970Z,22.71
2023-04-02T02:06:43.254Z,22.71
2023-04-02T02:09:18.042Z,22.59
2023-04-02T02:11:44.762Z,22.32
2023-04-02T02:14:24.787Z,22.54
2023-04-02T02:16:56.540Z,22.68
2023-04-02T02:19:32.802Z,22.68
2023-04-02T02:22:34.066Z,22.67
2023-04-02T02:25:11.207Z,22.67
2023-04-02T02:27:47.181Z,22.67
2023-04-02T02:30:21.182Z,22.53
2023-04-02T02:33:03.320Z,21.12
2023-04-02T02:35:50.893Z,22.65
2023-04-02T02:38:32.172Z,22.48
2023-04-02T02:41:16.416Z,22.64
2023-04-02T02:43:59.084Z,22.33
2023-04-02T02:46:28.879Z,22.64
2023-04-02T02:48:58.587Z,22.43
2023-04-02T02:51:47.115Z,22.31
2023-04-02T02:54:19.762Z,22.58
2023-04-02T02:56:53.322Z,22.63
2023-04-02T02:59:22.243Z,22.57
2023-04-02T03:01:49.381Z,22.33
2023-04-02T03:04:22.752Z,22.57
2023-04-02T03:06:58.020Z,22.16
2023-04-02T03:09:44.611Z,22.61
2023-04-02T03:12:23.821Z,22.60
2023-04-02T03:14:58.758Z,22.59
2023-04-02T03:17:36.849Z,22.59
2023-04-02T03:20:31.586Z,22.45
2023-04-02T03:23:34.874Z,22.58
2023-04-02T03:26:04.997Z,22.56
2023-04-02T03:28:39.153Z,22.51
2023-04-02T03:31:10.326Z,22.43
2023-04-02T03:33:46.054Z,22.57
2023-04-02T03:36:24.002Z,22.36
2023-04-02T03:38:56.929Z,22.48
2023-04-02T03:41:37.042Z,22.55
2023-04-02T03:44:15.237Z,22.40
2023-04-02T03:46:46.451Z,22.50
2023-04-02T03:49:36.708Z,22.28
2023-04-02T03:52:18.001Z,22.46
2023-04-02T03:54:54.020Z,22.43
2023-04-02T03:57:41.215Z,22.36
2023-04-02T04:00:22.859Z,22.52
2023-04-02T04:02:59.099Z,22.51
2023-04-02T04:05:48.241Z,22.51
2023-04-02T04:08:23.697Z,22.50
2023-04-02T04:10:53.901Z,22.50
2023-04-02T04:13:29.961Z,22.50
2023-04-02T04:16:03.231Z,22.50
2023-04-02T04:18:41.287Z,22.38
2023-04-02T04:21:15.813Z,22.49
2023-04-02T04:23:50.160Z,22.48
2023-04-02T04:26:31.040Z,22.41
2023-04-02T04:29:12.454Z,22.34
2023-04-02T04:31:49.344Z,22.48
2023-04-02T04:34:22.921Z,22.13
2023-04-02T04:37:01.591Z,22.23
2023-04-02T04:39:47.185Z,22.34
2023-04-02T04:42:38.458Z,22.11
2023-04-02T04:45:21.558Z,22.24
2023-04-02T04:47:54.815Z,22.45
2023-04-02T04:50:21.648Z,22.44
2023-04-02T04:52:48.270Z,22.39
2023-04-02T04:55:27.519Z,22.40
2023-04-02T04:58:03.977Z,22.31
2023-04-02T05:00:55.987Z,22.42
2023-04-02T05:03:22.671Z,22.42
2023-04-02T05:05:49.669Z,22.42
2023-04-02T05:08:27.172Z,22.41
2023-04-02T05:11:14.714Z,22.41
2023-04-02T05:13:53.574Z,22.35
2023-04-02T05:16:31.341Z,22.24
2023-04-02T05:19:10.471Z,22.13
2023-04-02T05:22:03.701Z,22.09
2023-04-02T05:24:41.982Z,22.02
2023-04-02T05:27:21.141Z,22.38
2023-04-02T05:29:57.641Z,22.32
2023-04-02T05:32:34.614Z,22.38
2023-04-02T05:35:06.594Z,22.28
2023-04-02T05:37:39.578Z,22.05
2023-04-02T05:40:18.024Z,21.80
2023-04-02T05:42:49.620Z,22.27
2023-04-02T05:45:23.892Z,22.25
2023-04-02T05:47:57.207Z,22.23
2023-04-02T05:50:44.175Z,22.17
2023-04-02T05:53:43.523Z,22.22
2023-04-02T05:56:28.316Z,22.19
2023-04-02T05:59:00.774Z,22.18
2023-04-02T06:01:49.453Z,22.18
2023-04-02T06:04:41.266Z,22.16
2023-04-02T06:07:16.244Z,22.15
2023-04-02T06:10:10.168Z,22.15
2023-04-02T06:13:00.234Z,21.96
2023-04-02T06:15:27.645Z,21.95
2023-04-02T06:18:16.830Z,22.06
2023-04-02T06:20:46.498Z,22.12
2023-04-02T06:23:23.386Z,22.10
2023-04-02T06:26:01.730Z,22.10
2023-04-02T06:28:41.839Z,22.10
2023-04-02T06:31:17.609Z,22.09
2023-04-02T06:33:45.284Z,21.63
2023-04-02T06:36:14.142Z,21.82
2023-04-02T06:38:41.587Z,22.07
2023-04-02T06:41:19.584Z,21.83
2023-04-02T06:44:07.210Z,21.98
2023-04-02T06:46:47.460Z,22.07
2023-04-02T06:49:36.353Z,21.91
2023-04-02T06:52:15.506Z,22.09
2023-04-02T06:54:42.599Z,22.09
2023-04-02T06:57:12.769Z,22.09
2023-04-02T06:59:42.242Z,22.09
2023-04-02T07:02:40.902Z,22.09
2023-04-02T07:05:11.566Z,22.09
2023-04-02T07:07:43.061Z,21.98
2023-04-02T07:10:12.734Z,22.10
2023-04-02T07:14:58.471Z,22.01
2023-04-02T07:17:25.574Z,22.11
2023-04-02T07:19:52.165Z,21.73
2023-04-02T07:22:22.163Z,22.10
2023-04-02T07:24:53.590Z,22.10
2023-04-02T07:27:20.270Z,22.06
2023-04-02T07:29:46.806Z,22.04
2023-04-02T07:32:13.914Z,22.04
2023-04-02T07:34:41.574Z,22.09
2023-04-02T07:37:12.928Z,21.97
2023-04-02T07:39:42.381Z,22.03
2023-04-02T07:42:09.202Z,22.10
2023-04-02T07:44:35.830Z,22.11
2023-04-02T07:47:02.695Z,22.06
2023-04-02T07:49:29.493Z,21.99
2023-04-02T07:51:56.107Z,21.99
2023-04-02T07:54:22.864Z,21.95
2023-04-02T07:56:49.478Z,22.07
2023-04-02T07:59:16.351Z,21.98
2023-04-02T08:01:43.339Z,22.01
2023-04-02T08:04:18.838Z,22.05
2023-04-02T08:06:46.102Z,21.95
2023-04-02T08:09:13.256Z,22.04
2023-04-02T08:11:42.025Z,22.03
2023-04-02T08:14:09.958Z,22.03
2023-04-02T08:16:50.499Z,22.01
2023-04-02T08:19:17.863Z,21.98
2023-04-02T08:21:45.073Z,22.00
2023-04-02T08:24:11.714Z,21.95
2023-04-02T08:26:38.311Z,21.98
2023-04-02T08:29:06.370Z,21.82
2023-04-02T08:31:32.948Z,21.98
2023-04-02T08:34:01.722Z,21.96
2023-04-02T08:36:34.907Z,21.90
2023-04-02T08:39:01.987Z,21.83
2023-04-02T08:41:28.625Z,21.95
2023-04-02T08:44:00.017Z,21.94
2023-04-02T08:46:34.666Z,21.88
2023-04-02T08:49:04.390Z,21.86
2023-04-02T08:51:35.530Z,21.81
2023-04-02T08:54:29.477Z,21.91
2023-04-02T08:57:07.386Z,21.87
2023-04-02T08:59:37.967Z,21.90
2023-04-02T09:02:26.500Z,21.90
2023-04-02T09:04:56.735Z,21.86
2023-04-02T09:07:23.446Z,21.87
2023-04-02T09:09:50.962Z,21.86
2023-04-02T09:12:21.368Z,21.86
2023-04-02T09:14:59.979Z,21.85
2023-04-02T09:17:26.947Z,21.68
2023-04-02T09:19:57.942Z,21.84
2023-04-02T09:22:29.259Z,21.82
2023-04-02T09:25:00.417Z,21.80
2023-04-02T09:27:30.733Z,21.62
2023-04-02T09:30:06.647Z,21.81
2023-04-02T09:32:46.039Z,21.80
2023-04-02T09:35:24.628Z,21.79
2023-04-02T09:38:21.607Z,21.79
2023-04-02T09:40:51.565Z,21.78
2023-04-02T09:43:38.793Z,21.78
2023-04-02T09:46:17.797Z,21.67
2023-04-02T09:48:46.455Z,21.74
2023-04-02T09:51:21.808Z,21.77
2023-04-02T09:54:04.586Z,21.66
2023-04-02T09:56:33.464Z,21.76
2023-04-02T09:59:21.751Z,21.75
2023-04-02T10:01:54.524Z,21.76
2023-04-02T10:04:44.792Z,21.73
2023-04-02T10:07:35.989Z,21.74
2023-04-02T10:10:12.959Z,21.48
2023-04-02T10:12:42.181Z,21.71
2023-04-02T10:15:17.036Z,21.69
2023-04-02T10:17:44.206Z,21.72
2023-04-02T10:20:24.292Z,21.54
2023-04-02T10:22:53.745Z,21.72
2023-04-02T10:25:23.516Z,21.71
2023-04-02T10:28:42.481Z,21.71
2023-04-02T10:31:37.993Z,21.60
2023-04-02T10:34:19.043Z,21.70
2023-04-02T10:36:57.748Z,21.59
2023-04-02T10:39:48.728Z,21.70
2023-04-02T10:42:46.130Z,21.69
2023-04-02T10:45:33.090Z,21.69
2023-04-02T10:48:22.956Z,21.69
2023-04-02T10:51:03.437Z,21.66
2023-04-02T10:53:52.629Z,21.65
2023-04-02T10:56:19.253Z,21.58
2023-04-02T10:58:57.357Z,21.59
2023-04-02T11:01:31.184Z,21.55
2023-04-02T11:04:14.264Z,21.69
2023-04-02T11:06:47.191Z,21.69
2023-04-02T11:09:28.024Z,21.68
2023-04-02T11:11:57.454Z,21.68
2023-04-02T11:14:26.676Z,21.70
2023-04-02T11:16:55.270Z,21.65
2023-04-02T11:19:32.951Z,21.70
2023-04-02T11:22:23.190Z,21.69
2023-04-02T11:24:52.295Z,21.59
2023-04-02T11:27:21.840Z,21.69
2023-04-02T11:30:15.953Z,21.69
2023-04-02T11:32:49.774Z,21.67
2023-04-02T11:35:27.061Z,21.66
2023-04-02T11:37:56.173Z,21.55
2023-04-02T11:40:58.007Z,21.66
2023-04-02T11:43:34.192Z,21.65
2023-04-02T11:46:06.569Z,21.65
2023-04-02T11:48:36.292Z,21.65
2023-04-02T11:51:22.535Z,21.65
2023-04-02T11:53:54.857Z,21.63
2023-04-02T11:56:32.608Z,21.63
2023-04-02T11:59:05.195Z,21.64
2023-04-02T12:02:08.444Z,21.61
2023-04-02T12:05:09.847Z,21.62
2023-04-02T12:07:46.713Z,21.61
2023-04-02T12:10:18.118Z,21.61
2023-04-02T12:12:44.961Z,21.61
2023-04-02T12:15:33.411Z,21.60
2023-04-02T12:18:25.363Z,21.60
2023-04-02T12:20:57.423Z,21.49
2023-04-02T12:23:33.364Z,21.59
2023-04-02T12:26:06.572Z,21.58
2023-04-02T12:28:38.115Z,21.55
2023-04-02T12:31:17.654Z,21.58
2023-04-02T12:33:44.931Z,21.57
2023-04-02T12:36:11.738Z,21.57
2023-04-02T12:38:56.025Z,21.55
2023-04-02T12:41:26.933Z,21.55
2023-04-02T12:44:04.317Z,21.55
2023-04-02T12:46:33.609Z,21.54
2023-04-02T12:49:11.971Z,21.53
2023-04-02T12:51:41.910Z,21.51
2023-04-02T12:54:15.250Z,21.53
2023-04-02T12:56:41.858Z,21.48
2023-04-02T12:59:29.979Z,21.53
2023-04-02T13:02:01.492Z,21.42
2023-04-02T13:04:28.254Z,21.51
2023-04-02T13:06:55.786Z,21.51
2023-04-02T13:09:36.222Z,21.51
2023-04-02T13:12:03.435Z,21.51
2023-04-02T13:14:30.986Z,21.51
2023-04-02T13:16:57.722Z,21.51
2023-04-02T13:19:32.434Z,21.50
2023-04-02T13:22:02.206Z,21.51
2023-04-02T13:24:31.767Z,21.49
2023-04-02T13:27:03.810Z,21.39
2023-04-02T13:29:32.747Z,21.44
2023-04-02T13:32:04.873Z,21.41
2023-04-02T13:34:31.509Z,21.48
2023-04-02T13:36:58.742Z,21.48
2023-04-02T13:39:26.031Z,21.48
2023-04-02T13:41:57.005Z,21.47
2023-04-02T13:44:31.235Z,21.48
2023-04-02T13:46:58.639Z,21.48
2023-04-02T13:49:26.353Z,21.31
2023-04-02T13:51:58.873Z,21.30
2023-04-02T13:54:45.908Z,21.46
2023-04-02T13:57:12.851Z,21.48
2023-04-02T13:59:39.385Z,21.47
2023-04-02T14:02:13.885Z,21.49
2023-04-02T14:04:44.946Z,21.48
2023-04-02T14:07:25.814Z,21.48
2023-04-02T14:10:21.414Z,21.48
2023-04-02T14:12:54.044Z,21.48
2023-04-02T14:15:38.690Z,21.48
2023-04-02T14:18:08.033Z,21.49
2023-04-02T14:21:10.784Z,21.48
2023-04-02T14:23:57.669Z,21.48
2023-04-02T14:26:30.349Z,21.49
2023-04-02T14:29:12.844Z,21.49
2023-04-02T14:31:55.861Z,21.49
2023-04-02T14:34:25.808Z,21.48
2023-04-02T14:37:05.097Z,21.47
2023-04-02T14:40:02.071Z,21.48
2023-04-02T14:42:41.437Z,21.48
2023-04-02T14:45:15.409Z,21.47
2023-04-02T14:47:55.449Z,21.46
2023-04-02T14:50:34.920Z,21.47
2023-04-02T14:53:09.137Z,21.40
2023-04-02T14:55:42.530Z,21.45
2023-04-02T14:58:28.730Z,21.44
2023-04-02T15:01:03.050Z,21.44
2023-04-02T15:03:36.209Z,21.43
2023-04-02T15:06:10.714Z,21.44
2023-04-02T15:08:42.052Z,21.29
2023-04-02T15:11:30.979Z,21.40
2023-04-02T15:14:02.352Z,21.32
2023-04-02T15:16:29.081Z,21.41
2023-04-02T15:18:57.626Z,21.40
2023-04-02T15:24:22.286Z,21.38
2023-04-02T15:26:59.139Z,21.38
2023-04-02T15:29:41.305Z,21.38
2023-04-02T15:32:33.965Z,21.36
2023-04-02T15:35:18.064Z,21.25
2023-04-02T15:38:05.754Z,21.35
2023-04-02T15:41:00.524Z,21.30
2023-04-02T15:43:56.529Z,21.31
2023-04-02T15:46:41.806Z,21.30
2023-04-02T15:49:32.958Z,21.30
2023-04-02T15:52:09.533Z,21.29
2023-04-02T15:54:51.545Z,21.27
2023-04-02T15:57:34.193Z,21.27
2023-04-02T16:00:24.485Z,21.17
2023-04-02T16:03:03.401Z,21.26
2023-04-02T16:05:48.659Z,21.26
2023-04-02T16:08:30.978Z,21.25
2023-04-02T16:10:57.624Z,21.21
2023-04-02T16:13:35.958Z,21.25
2023-04-02T16:16:22.026Z,21.25
2023-04-02T16:19:15.972Z,21.23
2023-04-02T16:22:07.820Z,21.23
2023-04-02T16:24:34.713Z,21.20
2023-04-02T16:27:29.022Z,21.18
2023-04-02T16:30:24.898Z,21.21
2023-04-02T16:33:06.836Z,20.98
2023-04-02T16:35:43.724Z,21.18
2023-04-02T16:38:34.779Z,21.19
2023-04-02T16:41:17.326Z,21.15
2023-04-02T16:44:03.266Z,21.18
2023-04-02T16:47:08.988Z,21.19
2023-04-02T16:49:57.418Z,21.20
2023-04-02T16:52:34.978Z,21.20
2023-04-02T16:55:23.294Z,21.21
2023-04-02T16:57:58.991Z,21.22
2023-04-02T17:00:48.216Z,21.20
2023-04-02T17:03:33.712Z,21.24
2023-04-02T17:06:08.591Z,21.25
2023-04-02T17:08:43.432Z,21.26
2023-04-02T17:11:21.389Z,21.27
2023-04-02T17:14:06.122Z,21.27
2023-04-02T17:16:50.304Z,21.26
2023-04-02T17:19:21.499Z,21.29
2023-04-02T17:21:52.900Z,21.30
2023-04-02T17:24:44.439Z,21.31
2023-04-02T17:27:46.218Z,21.32
2023-04-02T17:30:24.277Z,21.32
2023-04-02T17:32:51.077Z,21.33
2023-04-02T17:35:41.954Z,21.33
2023-04-02T17:38:12.981Z,21.20
2023-04-02T17:40:48.187Z,21.33
2023-04-02T17:43:40.987Z,21.34
2023-04-02T17:46:18.135Z,21.34
2023-04-02T17:48:48.732Z,21.34
2023-04-02T17:51:30.532Z,21.34
2023-04-02T17:54:14.621Z,21.33
2023-04-02T17:57:06.137Z,21.32
2023-04-02T17:59:55.452Z,21.31
2023-04-02T18:02:37.468Z,21.31
2023-04-02T18:05:30.721Z,21.29
2023-04-02T18:08:16.164Z,21.29
2023-04-02T18:10:46.130Z,21.28
2023-04-02T18:13:32.789Z,21.17
2023-04-02T18:16:54.401Z,21.26
2023-04-02T18:19:37.512Z,21.26
2023-04-02T18:22:23.054Z,21.25
2023-04-02T18:25:18.883Z,21.23
2023-04-02T18:28:23.530Z,21.15
2023-04-02T18:31:24.953Z,21.05
2023-04-02T18:34:09.966Z,21.23
2023-04-02T18:36:48.613Z,21.22
2023-04-02T18:39:48.534Z,21.21
2023-04-02T18:42:35.270Z,21.20
2023-04-02T18:45:23.247Z,21.21
2023-04-02T18:48:04.314Z,21.20
2023-04-02T18:50:40.905Z,21.04
2023-04-02T18:53:19.573Z,21.18
2023-04-02T18:55:56.443Z,21.18
2023-04-02T18:58:28.880Z,21.18
2023-04-02T19:00:56.177Z,21.10
2023-04-02T19:03:29.264Z,21.17
2023-04-02T19:06:03.343Z,21.17
2023-04-02T19:08:47.086Z,21.16
2023-04-02T19:11:32.170Z,21.16
2023-04-02T19:14:07.277Z,21.15
2023-04-02T19:16:54.846Z,21.17
2023-04-02T19:19:46.750Z,21.15
2023-04-02T19:22:30.255Z,21.14
2023-04-02T19:25:39.285Z,21.13
2023-04-02T19:28:34.037Z,21.13
2023-04-02T19:31:09.582Z,21.12
2023-04-02T19:33:48.517Z,21.11
2023-04-02T19:36:41.491Z,21.10
2023-04-02T19:39:32.293Z,21.11
2023-04-02T19:42:51.944Z,21.10
2023-04-02T19:45:29.881Z,21.10
2023-04-02T19:47:58.655Z,21.09
2023-04-02T19:50:37.917Z,21.09
2023-04-02T19:53:10.427Z,21.06
2023-04-02T19:55:39.629Z,21.09
2023-04-02T19:58:17.631Z,21.08
2023-04-02T20:00:46.350Z,21.09
2023-04-02T20:03:12.913Z,21.08
2023-04-02T20:05:42.293Z,21.09
2023-04-02T20:08:10.856Z,21.08
2023-04-02T20:10:37.825Z,21.08
2023-04-02T20:13:04.700Z,21.07
2023-04-02T20:15:31.371Z,21.08
2023-04-02T20:17:57.903Z,20.94
2023-04-02T20:20:24.667Z,20.97
2023-04-02T20:22:51.257Z,21.03
2023-04-02T20:25:17.820Z,21.08
2023-04-02T20:27:44.434Z,21.06
2023-04-02T20:30:11.645Z,20.91
2023-04-02T20:32:38.430Z,20.96
2023-04-02T20:35:05.961Z,21.05
2023-04-02T20:37:33.045Z,21.00
2023-04-02T20:39:59.765Z,20.95
2023-04-02T20:42:29.406Z,21.05
2023-04-02T20:44:58.219Z,21.04
2023-04-02T20:47:24.905Z,21.03
2023-04-02T20:49:52.163Z,21.03
2023-04-02T20:52:18.834Z,21.03
2023-04-02T20:54:45.526Z,21.02
2023-04-02T20:57:12.089Z,21.03
2023-04-02T20:59:38.721Z,21.02
2023-04-02T21:02:05.311Z,21.02
2023-04-02T21:04:31.868Z,21.01
2023-04-02T21:06:58.437Z,21.00
2023-04-02T21:09:25.103Z,20.99
2023-04-02T21:11:51.644Z,21.00
2023-04-02T21:14:18.863Z,21.00
2023-04-02T21:16:45.668Z,21.00
2023-04-02T21:19:12.490Z,21.00
2023-04-02T21:23:59.893Z,20.99
2023-04-02T21:26:28.846Z,20.87
2023-04-02T21:28:55.593Z,20.98
2023-04-02T21:31:32.967Z,20.93
2023-04-02T21:34:02.482Z,20.97
2023-04-02T21:36:32.563Z,20.97
2023-04-02T21:39:10.177Z,20.96
2023-04-02T21:41:38.748Z,20.96
2023-04-02T21:44:07.634Z,20.95
2023-04-02T21:46:36.928Z,20.95
2023-04-02T21:49:03.532Z,20.95
2023-04-02T21:51:32.589Z,20.94
2023-04-02T21:54:00.252Z,20.94
2023-04-02T21:56:32.454Z,20.81
2023-04-02T21:59:00.109Z,20.93
2023-04-02T22:01:29.090Z,20.93
2023-04-02T22:03:57.387Z,20.92
2023-04-02T22:06:27.106Z,20.92
2023-04-02T22:08:56.806Z,20.93
2023-04-02T22:11:26.600Z,20.81
2023-04-02T22:13:54.008Z,20.91
2023-04-02T22:16:23.854Z,20.91
2023-04-02T22:18:52.723Z,20.80
2023-04-02T22:21:20.357Z,20.87
2023-04-02T22:23:48.118Z,20.89
2023-04-02T22:26:16.245Z,20.89
2023-04-02T22:28:43.387Z,20.88
2023-04-02T22:31:14.314Z,20.85
2023-04-02T22:33:41.129Z,20.88
2023-04-02T22:36:08.008Z,20.87
2023-04-02T22:38:35.802Z,20.87
2023-04-02T22:41:09.629Z,20.86
2023-04-02T22:43:37.656Z,20.85
2023-04-02T22:46:05.545Z,20.85
2023-04-02T22:48:32.604Z,20.73
2023-04-02T22:51:02.759Z,20.85
2023-04-02T22:53:29.368Z,20.84
2023-04-02T22:56:07.056Z,20.83
2023-04-02T22:58:34.730Z,20.84
2023-04-02T23:01:08.339Z,20.82
2023-04-02T23:03:34.957Z,20.83
2023-04-02T23:06:07.937Z,20.81
2023-04-02T23:08:36.140Z,20.82
2023-04-02T23:11:05.043Z,20.82
2023-04-02T23:13:33.033Z,20.81
2023-04-02T23:16:04.299Z,20.78
2023-04-02T23:18:35.715Z,20.80
2023-04-02T23:21:03.359Z,20.79
2023-04-02T23:23:31.365Z,20.80
2023-04-02T23:26:14.556Z,20.80
2023-04-02T23:28:41.887Z,20.77
2023-04-02T23:31:12.988Z,20.77
2023-04-02T23:33:39.876Z,20.76
2023-04-02T23:36:18.707Z,20.77
2023-04-02T23:38:45.610Z,20.76
2023-04-02T23:41:14.869Z,20.77
2023-04-02T23:43:42.046Z,20.77
2023-04-02T23:46:08.941Z,20.75
2023-04-02T23:48:35.665Z,20.76
2023-04-02T23:51:02.174Z,20.75
2023-04-02T23:53:28.720Z,20.75
2023-04-02T23:55:55.225Z,20.74
2023-04-02T23:58:21.833Z,20.74
